sensor_id;sensor_type;location;lat;lon;timestamp;pressure;altitude;pressure_sealevel;temperature;humidity
8705;BME280;4389;41.932;25.904;2023-01-28T00:00:47;99809.50;;;4.51;100.00
8705;BME280;4389;41.932;25.904;2023-01-28T00:03:13;99818.31;;;4.39;100.00
8705;BME280;4389;41.932;25.904;2023-01-28T00:05:41;99824.59;;;4.36;100.00
8705;BME280;4389;41.932;25.904;2023-01-28T00:08:08;99821.38;;;4.33;100.00
8705;BME280;4389;41.932;25.904;2023-01-28T00:10:35;99814.69;;;4.29;100.00
8705;BME280;4389;41.932;25.904;2023-01-28T00:13:05;99825.16;;;4.29;100.00
8705;BME280;4389;41.932;25.904;2023-01-28T00:15:32;99818.47;;;4.25;100.00
8705;BME280;4389;41.932;25.904;2023-01-28T00:17:59;99819.53;;;4.22;100.00
8705;BME280;4389;41.932;25.904;2023-01-28T00:20:26;99823.72;;;4.25;100.00
8705;BME280;4389;41.932;25.904;2023-01-28T00:22:53;99822.25;;;4.21;100.00
8705;BME280;4389;41.932;25.904;2023-01-28T00:25:20;99824.41;;;4.16;100.00
8705;BME280;4389;41.932;25.904;2023-01-28T00:27:48;99825.63;;;4.23;100.00
8705;BME280;4389;41.932;25.904;2023-01-28T00:30:17;99824.16;;;4.19;100.00
8705;BME280;4389;41.932;25.904;2023-01-28T00:32:45;99830.34;;;4.18;100.00
8705;BME280;4389;41.932;25.904;2023-01-28T00:35:12;99839.88;;;4.19;100.00
8705;BME280;4389;41.932;25.904;2023-01-28T00:37:38;99853.41;;;4.13;100.00
8705;BME280;4389;41.932;25.904;2023-01-28T00:40:06;99843.78;;;4.14;100.00
8705;BME280;4389;41.932;25.904;2023-01-28T00:42:34;99850.78;;;4.13;100.00
8705;BME280;4389;41.932;25.904;2023-01-28T00:45:01;99866.47;;;4.13;100.00
8705;BME280;4389;41.932;25.904;2023-01-28T00:47:30;99856.25;;;4.10;100.00
8705;BME280;4389;41.932;25.904;2023-01-28T00:49:56;99877.63;;;4.04;100.00
8705;BME280;4389;41.932;25.904;2023-01-28T00:52:23;99861.41;;;3.99;100.00
8705;BME280;4389;41.932;25.904;2023-01-28T00:54:50;99868.88;;;3.93;100.00
8705;BME280;4389;41.932;25.904;2023-01-28T00:57:17;99867.31;;;3.90;100.00
8705;BME280;4389;41.932;25.904;2023-01-28T00:59:44;99866.78;;;3.85;100.00
8705;BME280;4389;41.932;25.904;2023-01-28T01:02:10;99866.59;;;3.88;100.00
8705;BME280;4389;41.932;25.904;2023-01-28T01:04:39;99878.91;;;3.86;100.00
8705;BME280;4389;41.932;25.904;2023-01-28T01:07:20;99877.78;;;3.90;100.00
8705;BME280;4389;41.932;25.904;2023-01-28T01:09:57;99877.06;;;3.88;100.00
8705;BME280;4389;41.932;25.904;2023-01-28T01:12:24;99882.47;;;3.85;100.00
8705;BME280;4389;41.932;25.904;2023-01-28T01:14:51;99878.59;;;3.91;100.00
8705;BME280;4389;41.932;25.904;2023-01-28T01:17:19;99880.47;;;3.89;100.00
8705;BME280;4389;41.932;25.904;2023-01-28T01:19:48;99886.75;;;3.86;100.00
8705;BME280;4389;41.932;25.904;2023-01-28T01:22:14;99879.16;;;3.83;100.00
8705;BME280;4389;41.932;25.904;2023-01-28T01:24:41;99879.53;;;3.90;100.00
8705;BME280;4389;41.932;25.904;2023-01-28T01:27:08;99884.78;;;3.90;100.00
8705;BME280;4389;41.932;25.904;2023-01-28T01:29:35;99890.84;;;3.90;100.00
8705;BME280;4389;41.932;25.904;2023-01-28T01:32:02;99885.63;;;3.90;100.00
8705;BME280;4389;41.932;25.904;2023-01-28T01:34:29;99893.56;;;3.89;100.00
8705;BME280;4389;41.932;25.904;2023-01-28T01:36:57;99895.56;;;3.85;100.00
8705;BME280;4389;41.932;25.904;2023-01-28T01:39:24;99899.66;;;3.89;100.00
8705;BME280;4389;41.932;25.904;2023-01-28T01:41:51;99904.88;;;3.89;100.00
8705;BME280;4389;41.932;25.904;2023-01-28T01:44:51;99909.50;;;3.86;100.00
8705;BME280;4389;41.932;25.904;2023-01-28T01:47:19;99910.13;;;3.89;100.00
8705;BME280;4389;41.932;25.904;2023-01-28T01:49:48;99921.00;;;3.83;100.00
8705;BME280;4389;41.932;25.904;2023-01-28T01:52:18;99916.91;;;3.79;100.00
8705;BME280;4389;41.932;25.904;2023-01-28T01:54:51;99926.75;;;3.76;100.00
8705;BME280;4389;41.932;25.904;2023-01-28T01:57:22;99928.22;;;3.80;100.00
8705;BME280;4389;41.932;25.904;2023-01-28T01:59:49;99923.31;;;3.75;100.00
8705;BME280;4389;41.932;25.904;2023-01-28T02:02:16;99927.50;;;3.65;100.00
8705;BME280;4389;41.932;25.904;2023-01-28T02:04:43;99925.41;;;3.70;100.00
8705;BME280;4389;41.932;25.904;2023-01-28T02:07:13;99935.88;;;3.70;100.00
8705;BME280;4389;41.932;25.904;2023-01-28T02:09:42;99935.66;;;3.61;100.00
8705;BME280;4389;41.932;25.904;2023-01-28T02:12:11;99936.28;;;3.64;100.00
8705;BME280;4389;41.932;25.904;2023-01-28T02:14:43;99932.66;;;3.54;100.00
8705;BME280;4389;41.932;25.904;2023-01-28T02:17:12;99935.47;;;3.51;100.00
8705;BME280;4389;41.932;25.904;2023-01-28T02:19:43;99942.38;;;3.52;100.00
8705;BME280;4389;41.932;25.904;2023-01-28T02:22:33;99937.78;;;3.56;100.00
8705;BME280;4389;41.932;25.904;2023-01-28T02:25:33;99943.84;;;3.56;100.00
8705;BME280;4389;41.932;25.904;2023-01-28T02:28:14;99947.81;;;3.62;100.00
8705;BME280;4389;41.932;25.904;2023-01-28T02:30:53;99946.88;;;3.50;100.00
8705;BME280;4389;41.932;25.904;2023-01-28T02:33:28;99943.75;;;3.58;100.00
8705;BME280;4389;41.932;25.904;2023-01-28T02:36:01;99941.34;;;3.67;100.00
8705;BME280;4389;41.932;25.904;2023-01-28T02:38:32;99952.75;;;3.66;100.00
8705;BME280;4389;41.932;25.904;2023-01-28T02:41:04;99949.91;;;3.69;100.00
8705;BME280;4389;41.932;25.904;2023-01-28T02:43:36;99945.63;;;3.68;100.00
8705;BME280;4389;41.932;25.904;2023-01-28T02:46:13;99945.72;;;3.67;100.00
8705;BME280;4389;41.932;25.904;2023-01-28T02:49:00;99946.97;;;3.61;100.00
8705;BME280;4389;41.932;25.904;2023-01-28T02:51:35;99955.97;;;3.57;100.00
8705;BME280;4389;41.932;25.904;2023-01-28T02:54:10;99959.34;;;3.59;100.00
8705;BME280;4389;41.932;25.904;2023-01-28T02:56:44;99951.59;;;3.58;100.00
8705;BME280;4389;41.932;25.904;2023-01-28T02:59:18;99955.78;;;3.60;100.00
8705;BME280;4389;41.932;25.904;2023-01-28T03:02:06;99959.53;;;3.56;100.00
8705;BME280;4389;41.932;25.904;2023-01-28T03:04:37;99962.03;;;3.58;100.00
8705;BME280;4389;41.932;25.904;2023-01-28T03:07:07;99961.00;;;3.60;100.00
8705;BME280;4389;41.932;25.904;2023-01-28T03:09:37;99957.84;;;3.55;100.00
8705;BME280;4389;41.932;25.904;2023-01-28T03:12:07;99957.44;;;3.61;100.00
8705;BME280;4389;41.932;25.904;2023-01-28T03:14:56;99961.19;;;3.57;100.00
8705;BME280;4389;41.932;25.904;2023-01-28T03:17:43;99952.53;;;3.57;100.00
8705;BME280;4389;41.932;25.904;2023-01-28T03:20:34;99962.03;;;3.58;100.00
8705;BME280;4389;41.932;25.904;2023-01-28T03:23:25;99966.66;;;3.54;100.00
8705;BME280;4389;41.932;25.904;2023-01-28T03:26:11;99969.16;;;3.56;100.00
8705;BME280;4389;41.932;25.904;2023-01-28T03:29:01;99969.69;;;3.48;100.00
8705;BME280;4389;41.932;25.904;2023-01-28T03:31:50;99976.97;;;3.43;100.00
8705;BME280;4389;41.932;25.904;2023-01-28T03:34:36;99972.50;;;3.45;100.00
8705;BME280;4389;41.932;25.904;2023-01-28T03:37:21;99968.94;;;3.46;100.00
8705;BME280;4389;41.932;25.904;2023-01-28T03:39:48;99974.38;;;3.43;100.00
8705;BME280;4389;41.932;25.904;2023-01-28T03:42:15;99972.69;;;3.55;100.00
8705;BME280;4389;41.932;25.904;2023-01-28T03:44:43;99973.44;;;3.57;100.00
8705;BME280;4389;41.932;25.904;2023-01-28T03:47:22;99977.50;;;3.61;100.00
8705;BME280;4389;41.932;25.904;2023-01-28T03:49:50;99985.47;;;3.72;100.00
8705;BME280;4389;41.932;25.904;2023-01-28T03:52:20;99975.81;;;3.72;100.00
8705;BME280;4389;41.932;25.904;2023-01-28T03:54:47;99988.00;;;3.73;100.00
8705;BME280;4389;41.932;25.904;2023-01-28T03:57:14;99987.22;;;3.71;100.00
8705;BME280;4389;41.932;25.904;2023-01-28T03:59:41;99981.59;;;3.77;100.00
8705;BME280;4389;41.932;25.904;2023-01-28T04:02:09;99984.44;;;3.74;100.00
8705;BME280;4389;41.932;25.904;2023-01-28T04:04:38;99981.50;;;3.66;100.00
8705;BME280;4389;41.932;25.904;2023-01-28T04:07:06;99980.97;;;3.61;100.00
8705;BME280;4389;41.932;25.904;2023-01-28T04:09:35;99980.97;;;3.61;100.00
8705;BME280;4389;41.932;25.904;2023-01-28T04:12:03;99991.31;;;3.75;100.00
8705;BME280;4389;41.932;25.904;2023-01-28T04:14:30;99988.81;;;3.61;100.00
8705;BME280;4389;41.932;25.904;2023-01-28T04:16:57;99983.47;;;3.75;100.00
8705;BME280;4389;41.932;25.904;2023-01-28T04:19:24;99991.53;;;3.72;100.00
8705;BME280;4389;41.932;25.904;2023-01-28T04:21:53;99990.25;;;3.65;100.00
8705;BME280;4389;41.932;25.904;2023-01-28T04:24:21;100001.16;;;3.59;100.00
8705;BME280;4389;41.932;25.904;2023-01-28T04:26:48;100001.78;;;3.75;100.00
8705;BME280;4389;41.932;25.904;2023-01-28T04:29:15;99999.91;;;3.77;100.00
8705;BME280;4389;41.932;25.904;2023-01-28T04:31:42;100003.69;;;3.73;100.00
8705;BME280;4389;41.932;25.904;2023-01-28T04:34:08;100013.72;;;3.54;100.00
8705;BME280;4389;41.932;25.904;2023-01-28T04:36:35;100014.16;;;3.73;100.00
8705;BME280;4389;41.932;25.904;2023-01-28T04:39:03;100020.59;;;3.55;100.00
8705;BME280;4389;41.932;25.904;2023-01-28T04:41:30;100009.22;;;3.56;100.00
8705;BME280;4389;41.932;25.904;2023-01-28T04:43:57;100015.78;;;3.49;100.00
8705;BME280;4389;41.932;25.904;2023-01-28T04:46:24;100016.00;;;3.46;100.00
8705;BME280;4389;41.932;25.904;2023-01-28T04:48:51;100021.00;;;3.49;100.00
8705;BME280;4389;41.932;25.904;2023-01-28T04:51:18;100023.66;;;3.74;100.00
8705;BME280;4389;41.932;25.904;2023-01-28T04:53:45;100028.16;;;3.85;100.00
8705;BME280;4389;41.932;25.904;2023-01-28T04:56:13;100023.13;;;3.82;100.00
8705;BME280;4389;41.932;25.904;2023-01-28T04:58:39;100025.44;;;3.74;100.00
8705;BME280;4389;41.932;25.904;2023-01-28T05:01:06;100023.75;;;3.85;100.00
8705;BME280;4389;41.932;25.904;2023-01-28T05:03:34;100029.19;;;3.95;100.00
8705;BME280;4389;41.932;25.904;2023-01-28T05:06:01;100037.34;;;4.03;100.00
8705;BME280;4389;41.932;25.904;2023-01-28T05:08:29;100039.03;;;3.91;100.00
8705;BME280;4389;41.932;25.904;2023-01-28T05:10:56;100046.25;;;4.00;100.00
8705;BME280;4389;41.932;25.904;2023-01-28T05:13:24;100053.38;;;3.98;100.00
8705;BME280;4389;41.932;25.904;2023-01-28T05:15:51;100059.44;;;3.99;100.00
8705;BME280;4389;41.932;25.904;2023-01-28T05:18:18;100063.72;;;4.12;100.00
8705;BME280;4389;41.932;25.904;2023-01-28T05:20:46;100061.34;;;4.09;100.00
8705;BME280;4389;41.932;25.904;2023-01-28T05:23:13;100062.78;;;4.13;100.00
8705;BME280;4389;41.932;25.904;2023-01-28T05:25:40;100069.16;;;4.22;100.00
8705;BME280;4389;41.932;25.904;2023-01-28T05:28:07;100066.22;;;4.26;100.00
8705;BME280;4389;41.932;25.904;2023-01-28T05:30:36;100071.84;;;4.32;100.00
8705;BME280;4389;41.932;25.904;2023-01-28T05:33:03;100068.94;;;4.37;100.00
8705;BME280;4389;41.932;25.904;2023-01-28T05:35:30;100080.03;;;4.40;100.00
8705;BME280;4389;41.932;25.904;2023-01-28T05:37:57;100071.81;;;4.09;100.00
8705;BME280;4389;41.932;25.904;2023-01-28T05:40:24;100079.00;;;4.18;100.00
8705;BME280;4389;41.932;25.904;2023-01-28T05:42:51;100075.22;;;4.22;100.00
8705;BME280;4389;41.932;25.904;2023-01-28T05:45:18;100081.94;;;4.14;100.00
8705;BME280;4389;41.932;25.904;2023-01-28T05:47:46;100083.59;;;4.27;100.00
8705;BME280;4389;41.932;25.904;2023-01-28T05:50:13;100087.78;;;4.29;100.00
8705;BME280;4389;41.932;25.904;2023-01-28T05:52:40;100092.63;;;4.23;100.00
8705;BME280;4389;41.932;25.904;2023-01-28T05:55:08;100100.38;;;4.37;100.00
8705;BME280;4389;41.932;25.904;2023-01-28T05:57:36;100102.03;;;4.38;100.00
8705;BME280;4389;41.932;25.904;2023-01-28T06:00:03;100100.56;;;4.34;100.00
8705;BME280;4389;41.932;25.904;2023-01-28T06:02:31;100102.75;;;4.40;100.00
8705;BME280;4389;41.932;25.904;2023-01-28T06:04:59;100100.66;;;4.32;100.00
8705;BME280;4389;41.932;25.904;2023-01-28T06:07:26;100110.63;;;4.28;100.00
8705;BME280;4389;41.932;25.904;2023-01-28T06:09:53;100110.22;;;4.33;100.00
8705;BME280;4389;41.932;25.904;2023-01-28T06:12:20;100113.56;;;4.35;100.00
8705;BME280;4389;41.932;25.904;2023-01-28T06:14:47;100115.63;;;4.43;100.00
8705;BME280;4389;41.932;25.904;2023-01-28T06:17:13;100115.19;;;4.49;100.00
8705;BME280;4389;41.932;25.904;2023-01-28T06:19:40;100115.00;;;4.52;100.00
8705;BME280;4389;41.932;25.904;2023-01-28T06:22:09;100126.31;;;4.52;100.00
8705;BME280;4389;41.932;25.904;2023-01-28T06:24:36;100128.09;;;4.52;100.00
8705;BME280;4389;41.932;25.904;2023-01-28T06:27:03;100136.38;;;4.46;100.00
8705;BME280;4389;41.932;25.904;2023-01-28T06:29:30;100133.75;;;4.46;100.00
8705;BME280;4389;41.932;25.904;2023-01-28T06:31:57;100135.75;;;4.42;100.00
8705;BME280;4389;41.932;25.904;2023-01-28T06:34:24;100135.53;;;4.45;100.00
8705;BME280;4389;41.932;25.904;2023-01-28T06:36:51;100144.13;;;4.35;100.00
8705;BME280;4389;41.932;25.904;2023-01-28T06:39:20;100139.53;;;4.26;100.00
8705;BME280;4389;41.932;25.904;2023-01-28T06:41:48;100143.31;;;4.34;100.00
8705;BME280;4389;41.932;25.904;2023-01-28T06:44:15;100153.66;;;4.36;100.00
8705;BME280;4389;41.932;25.904;2023-01-28T06:46:42;100160.66;;;4.48;100.00
8705;BME280;4389;41.932;25.904;2023-01-28T06:49:09;100150.59;;;4.67;100.00
8705;BME280;4389;41.932;25.904;2023-01-28T06:51:35;100158.34;;;4.56;100.00
8705;BME280;4389;41.932;25.904;2023-01-28T06:54:02;100166.31;;;4.67;100.00
8705;BME280;4389;41.932;25.904;2023-01-28T06:56:32;100168.19;;;4.77;100.00
8705;BME280;4389;41.932;25.904;2023-01-28T06:58:59;100163.59;;;4.56;100.00
8705;BME280;4389;41.932;25.904;2023-01-28T07:01:26;100170.75;;;4.41;100.00
8705;BME280;4389;41.932;25.904;2023-01-28T07:03:53;100172.81;;;4.49;100.00
8705;BME280;4389;41.932;25.904;2023-01-28T07:06:20;100176.16;;;4.51;100.00
8705;BME280;4389;41.932;25.904;2023-01-28T07:08:47;100179.75;;;4.62;100.00
8705;BME280;4389;41.932;25.904;2023-01-28T07:11:13;100180.75;;;4.85;100.00
8705;BME280;4389;41.932;25.904;2023-01-28T07:13:43;100179.47;;;5.03;100.00
8705;BME280;4389;41.932;25.904;2023-01-28T07:16:12;100182.41;;;4.86;100.00
8705;BME280;4389;41.932;25.904;2023-01-28T07:18:39;100180.53;;;4.75;100.00
8705;BME280;4389;41.932;25.904;2023-01-28T07:21:05;100195.16;;;4.67;100.00
8705;BME280;4389;41.932;25.904;2023-01-28T07:23:32;100196.88;;;4.79;100.00
8705;BME280;4389;41.932;25.904;2023-01-28T07:26:00;100208.63;;;4.86;98.88
8705;BME280;4389;41.932;25.904;2023-01-28T07:28:27;100210.91;;;5.03;97.38
8705;BME280;4389;41.932;25.904;2023-01-28T07:30:55;100215.84;;;5.07;98.57
8705;BME280;4389;41.932;25.904;2023-01-28T07:33:22;100206.19;;;5.08;98.24
8705;BME280;4389;41.932;25.904;2023-01-28T07:35:49;100208.94;;;4.94;98.08
8705;BME280;4389;41.932;25.904;2023-01-28T07:38:16;100211.03;;;5.01;98.44
8705;BME280;4389;41.932;25.904;2023-01-28T07:40:43;100210.66;;;5.18;96.38
8705;BME280;4389;41.932;25.904;2023-01-28T07:43:10;100214.06;;;5.08;95.26
8705;BME280;4389;41.932;25.904;2023-01-28T07:45:37;100211.75;;;5.16;95.74
8705;BME280;4389;41.932;25.904;2023-01-28T07:48:07;100225.72;;;5.40;96.39
8705;BME280;4389;41.932;25.904;2023-01-28T07:50:35;100225.56;;;5.18;93.40
8705;BME280;4389;41.932;25.904;2023-01-28T07:53:03;100229.34;;;5.14;95.11
8705;BME280;4389;41.932;25.904;2023-01-28T07:55:30;100228.50;;;5.13;93.25
8705;BME280;4389;41.932;25.904;2023-01-28T07:58:01;100228.41;;;5.02;93.54
8705;BME280;4389;41.932;25.904;2023-01-28T08:00:31;100233.72;;;5.26;94.00
8705;BME280;4389;41.932;25.904;2023-01-28T08:02:59;100237.09;;;5.15;93.19
8705;BME280;4389;41.932;25.904;2023-01-28T08:05:35;100235.53;;;5.49;92.79
8705;BME280;4389;41.932;25.904;2023-01-28T08:08:05;100244.47;;;5.70;92.30
8705;BME280;4389;41.932;25.904;2023-01-28T08:10:32;100247.06;;;5.59;91.27
8705;BME280;4389;41.932;25.904;2023-01-28T08:12:59;100256.38;;;5.63;91.24
8705;BME280;4389;41.932;25.904;2023-01-28T08:15:27;100257.06;;;5.77;91.86
8705;BME280;4389;41.932;25.904;2023-01-28T08:17:55;100262.53;;;5.87;90.15
8705;BME280;4389;41.932;25.904;2023-01-28T08:20:22;100254.47;;;6.01;89.36
8705;BME280;4389;41.932;25.904;2023-01-28T08:22:50;100262.88;;;6.17;87.73
8705;BME280;4389;41.932;25.904;2023-01-28T08:25:17;100262.66;;;5.96;88.15
8705;BME280;4389;41.932;25.904;2023-01-28T08:27:44;100267.56;;;5.77;88.88
8705;BME280;4389;41.932;25.904;2023-01-28T08:30:11;100266.88;;;5.63;89.61
8705;BME280;4389;41.932;25.904;2023-01-28T08:32:38;100274.41;;;5.67;89.95
8705;BME280;4389;41.932;25.904;2023-01-28T08:35:05;100278.47;;;5.84;90.09
8705;BME280;4389;41.932;25.904;2023-01-28T08:37:33;100279.94;;;5.88;89.22
8705;BME280;4389;41.932;25.904;2023-01-28T08:40:01;100274.13;;;5.59;90.12
8705;BME280;4389;41.932;25.904;2023-01-28T08:42:28;100271.41;;;5.61;91.11
8705;BME280;4389;41.932;25.904;2023-01-28T08:44:55;100269.88;;;5.82;89.89
8705;BME280;4389;41.932;25.904;2023-01-28T08:47:22;100271.78;;;5.80;89.05
8705;BME280;4389;41.932;25.904;2023-01-28T08:49:49;100276.66;;;5.61;89.81
8705;BME280;4389;41.932;25.904;2023-01-28T08:52:16;100270.34;;;5.63;90.51
8705;BME280;4389;41.932;25.904;2023-01-28T08:54:43;100265.97;;;5.51;90.68
8705;BME280;4389;41.932;25.904;2023-01-28T08:57:11;100263.84;;;5.56;91.05
8705;BME280;4389;41.932;25.904;2023-01-28T08:59:38;100264.91;;;5.54;90.43
8705;BME280;4389;41.932;25.904;2023-01-28T09:02:11;100266.53;;;5.67;90.61
8705;BME280;4389;41.932;25.904;2023-01-28T09:04:38;100262.47;;;5.99;89.80
8705;BME280;4389;41.932;25.904;2023-01-28T09:07:06;100267.00;;;5.61;89.47
8705;BME280;4389;41.932;25.904;2023-01-28T09:09:33;100255.31;;;5.29;89.79
8705;BME280;4389;41.932;25.904;2023-01-28T09:12:00;100257.75;;;5.56;88.69
8705;BME280;4389;41.932;25.904;2023-01-28T09:14:28;100253.94;;;5.72;90.36
8705;BME280;4389;41.932;25.904;2023-01-28T09:16:55;100250.63;;;5.94;88.43
8705;BME280;4389;41.932;25.904;2023-01-28T09:19:22;100262.88;;;6.17;88.44
8705;BME280;4389;41.932;25.904;2023-01-28T09:21:49;100262.78;;;6.18;88.68
8705;BME280;4389;41.932;25.904;2023-01-28T09:24:16;100275.06;;;6.18;87.84
8705;BME280;4389;41.932;25.904;2023-01-28T09:26:43;100268.16;;;6.28;86.08
8705;BME280;4389;41.932;25.904;2023-01-28T09:29:10;100266.31;;;6.41;85.25
8705;BME280;4389;41.932;25.904;2023-01-28T09:31:38;100268.72;;;6.44;84.82
8705;BME280;4389;41.932;25.904;2023-01-28T09:34:05;100266.09;;;6.55;84.63
8705;BME280;4389;41.932;25.904;2023-01-28T09:36:32;100278.81;;;6.72;84.35
8705;BME280;4389;41.932;25.904;2023-01-28T09:38:59;100272.00;;;6.80;83.31
8705;BME280;4389;41.932;25.904;2023-01-28T09:41:27;100268.31;;;6.72;82.50
8705;BME280;4389;41.932;25.904;2023-01-28T09:44:24;100269.44;;;6.57;81.50
8705;BME280;4389;41.932;25.904;2023-01-28T09:47:01;100267.56;;;6.59;82.00
8705;BME280;4389;41.932;25.904;2023-01-28T09:49:34;100264.97;;;7.14;79.94
8705;BME280;4389;41.932;25.904;2023-01-28T09:52:02;100271.19;;;6.91;81.05
8705;BME280;4389;41.932;25.904;2023-01-28T09:54:35;100264.72;;;6.84;80.63
8705;BME280;4389;41.932;25.904;2023-01-28T09:57:11;100264.88;;;7.04;81.72
8705;BME280;4389;41.932;25.904;2023-01-28T09:59:40;100267.47;;;6.93;82.04
8705;BME280;4389;41.932;25.904;2023-01-28T10:02:26;100260.31;;;6.95;82.25
8705;BME280;4389;41.932;25.904;2023-01-28T10:05:02;100251.50;;;7.18;81.73
8705;BME280;4389;41.932;25.904;2023-01-28T10:07:37;100252.56;;;7.16;81.97
8705;BME280;4389;41.932;25.904;2023-01-28T10:10:11;100257.00;;;7.04;82.93
8705;BME280;4389;41.932;25.904;2023-01-28T10:12:49;100257.56;;;6.97;83.45
8705;BME280;4389;41.932;25.904;2023-01-28T10:15:29;100260.91;;;6.99;82.21
8705;BME280;4389;41.932;25.904;2023-01-28T10:18:06;100248.38;;;7.13;82.36
8705;BME280;4389;41.932;25.904;2023-01-28T10:20:36;100254.44;;;7.58;81.42
8705;BME280;4389;41.932;25.904;2023-01-28T10:23:13;100258.88;;;7.89;80.77
8705;BME280;4389;41.932;25.904;2023-01-28T10:25:43;100262.72;;;7.85;78.06
8705;BME280;4389;41.932;25.904;2023-01-28T10:28:18;100265.81;;;8.01;77.03
8705;BME280;4389;41.932;25.904;2023-01-28T10:30:47;100263.91;;;7.92;77.28
8705;BME280;4389;41.932;25.904;2023-01-28T10:33:19;100266.09;;;7.87;77.09
8705;BME280;4389;41.932;25.904;2023-01-28T10:35:48;100264.16;;;7.78;77.49
8705;BME280;4389;41.932;25.904;2023-01-28T10:38:19;100262.72;;;7.85;80.48
8705;BME280;4389;41.932;25.904;2023-01-28T10:40:46;100272.06;;;7.89;79.62
8705;BME280;4389;41.932;25.904;2023-01-28T10:43:15;100276.41;;;7.79;77.92
8705;BME280;4389;41.932;25.904;2023-01-28T10:45:55;100268.09;;;7.94;78.50
8705;BME280;4389;41.932;25.904;2023-01-28T10:48:29;100268.84;;;8.17;75.92
8705;BME280;4389;41.932;25.904;2023-01-28T10:50:57;100271.78;;;8.03;75.56
8705;BME280;4389;41.932;25.904;2023-01-28T10:53:34;100265.19;;;7.66;75.70
8705;BME280;4389;41.932;25.904;2023-01-28T10:56:02;100266.19;;;7.43;74.86
8705;BME280;4389;41.932;25.904;2023-01-28T10:58:32;100267.00;;;7.43;73.49
8705;BME280;4389;41.932;25.904;2023-01-28T11:01:03;100265.41;;;7.74;73.75
8705;BME280;4389;41.932;25.904;2023-01-28T11:03:32;100268.47;;;7.90;72.44
8705;BME280;4389;41.932;25.904;2023-01-28T11:06:00;100268.41;;;7.58;72.27
8705;BME280;4389;41.932;25.904;2023-01-28T11:08:28;100268.63;;;7.66;72.91
8705;BME280;4389;41.932;25.904;2023-01-28T11:10:56;100264.22;;;7.56;73.80
8705;BME280;4389;41.932;25.904;2023-01-28T11:13:25;100261.50;;;8.00;71.77
8705;BME280;4389;41.932;25.904;2023-01-28T11:15:59;100261.94;;;8.05;72.85
8705;BME280;4389;41.932;25.904;2023-01-28T11:18:29;100266.25;;;8.06;72.73
8705;BME280;4389;41.932;25.904;2023-01-28T11:21:01;100266.00;;;8.09;73.40
8705;BME280;4389;41.932;25.904;2023-01-28T11:23:32;100257.91;;;7.90;73.42
8705;BME280;4389;41.932;25.904;2023-01-28T11:26:04;100268.16;;;8.15;72.87
8705;BME280;4389;41.932;25.904;2023-01-28T11:28:32;100264.16;;;8.52;72.99
8705;BME280;4389;41.932;25.904;2023-01-28T11:31:01;100259.66;;;8.43;69.90
8705;BME280;4389;41.932;25.904;2023-01-28T11:33:32;100256.25;;;8.72;70.83
8705;BME280;4389;41.932;25.904;2023-01-28T11:36:14;100261.00;;;8.37;71.92
8705;BME280;4389;41.932;25.904;2023-01-28T11:38:49;100252.44;;;8.13;72.69
8705;BME280;4389;41.932;25.904;2023-01-28T11:41:17;100257.06;;;8.32;71.55
8705;BME280;4389;41.932;25.904;2023-01-28T11:43:44;100255.31;;;8.21;72.52
8705;BME280;4389;41.932;25.904;2023-01-28T11:46:34;100252.63;;;8.01;72.17
8705;BME280;4389;41.932;25.904;2023-01-28T11:49:10;100254.63;;;8.40;74.40
8705;BME280;4389;41.932;25.904;2023-01-28T11:51:49;100255.13;;;8.34;71.31
8705;BME280;4389;41.932;25.904;2023-01-28T11:54:29;100255.31;;;8.42;71.12
8705;BME280;4389;41.932;25.904;2023-01-28T11:57:10;100242.72;;;8.25;71.09
8705;BME280;4389;41.932;25.904;2023-01-28T12:02:52;100257.84;;;8.23;71.38
8705;BME280;4389;41.932;25.904;2023-01-28T12:05:44;100249.16;;;8.32;70.65
8705;BME280;4389;41.932;25.904;2023-01-28T12:08:19;100247.50;;;8.31;70.96
8705;BME280;4389;41.932;25.904;2023-01-28T12:11:03;100252.69;;;8.42;71.46
8705;BME280;4389;41.932;25.904;2023-01-28T12:13:42;100255.66;;;8.28;70.50
8705;BME280;4389;41.932;25.904;2023-01-28T12:16:20;100261.19;;;8.25;70.36
8705;BME280;4389;41.932;25.904;2023-01-28T12:19:27;100264.47;;;7.95;70.30
8705;BME280;4389;41.932;25.904;2023-01-28T12:22:20;100264.34;;;8.08;72.98
8705;BME280;4389;41.932;25.904;2023-01-28T12:25:16;100262.59;;;7.97;71.08
8705;BME280;4389;41.932;25.904;2023-01-28T12:27:51;100265.44;;;8.05;72.03
8705;BME280;4389;41.932;25.904;2023-01-28T12:30:30;100266.75;;;8.00;71.94
8705;BME280;4389;41.932;25.904;2023-01-28T12:33:20;100263.78;;;7.51;73.56
8705;BME280;4389;41.932;25.904;2023-01-28T12:35:58;100267.81;;;7.66;75.33
8705;BME280;4389;41.932;25.904;2023-01-28T12:38:40;100284.34;;;7.57;73.93
8705;BME280;4389;41.932;25.904;2023-01-28T12:41:13;100290.34;;;7.26;75.39
8705;BME280;4389;41.932;25.904;2023-01-28T12:43:49;100281.25;;;7.30;78.39
8705;BME280;4389;41.932;25.904;2023-01-28T12:46:25;100283.66;;;7.22;78.76
8705;BME280;4389;41.932;25.904;2023-01-28T12:48:58;100296.06;;;6.98;80.43
8705;BME280;4389;41.932;25.904;2023-01-28T12:51:29;100300.25;;;7.00;79.90
8705;BME280;4389;41.932;25.904;2023-01-28T12:54:01;100293.22;;;7.01;81.37
8705;BME280;4389;41.932;25.904;2023-01-28T12:56:34;100298.72;;;7.09;82.67
8705;BME280;4389;41.932;25.904;2023-01-28T12:59:05;100290.78;;;6.98;82.95
8705;BME280;4389;41.932;25.904;2023-01-28T13:01:40;100295.69;;;6.91;83.12
8705;BME280;4389;41.932;25.904;2023-01-28T13:04:12;100295.09;;;6.88;83.19
8705;BME280;4389;41.932;25.904;2023-01-28T13:06:46;100301.78;;;6.92;83.43
8705;BME280;4389;41.932;25.904;2023-01-28T13:09:17;100300.81;;;6.82;83.46
8705;BME280;4389;41.932;25.904;2023-01-28T13:11:48;100316.38;;;6.96;83.10
8705;BME280;4389;41.932;25.904;2023-01-28T13:14:17;100323.66;;;6.92;84.03
8705;BME280;4389;41.932;25.904;2023-01-28T13:16:46;100317.47;;;7.04;84.80
8705;BME280;4389;41.932;25.904;2023-01-28T13:19:23;100325.19;;;6.84;83.80
8705;BME280;4389;41.932;25.904;2023-01-28T13:21:50;100316.84;;;6.79;83.23
8705;BME280;4389;41.932;25.904;2023-01-28T13:24:29;100322.09;;;6.79;83.31
8705;BME280;4389;41.932;25.904;2023-01-28T13:27:10;100319.19;;;6.71;84.10
8705;BME280;4389;41.932;25.904;2023-01-28T13:29:38;100327.31;;;6.68;83.75